MOUNT RAINIER
GEOLOGY & WEATHER
Hello guest! [ Log In ]
morageology.com Water Data for Paradise at Mount Rainier National Park

Paradise at Mount Rainier National Park

Date Range to view:
 
[ Graphical View | Weather History | Precipitation Intensity ]

View this data in a CSV Format

GMT Date/Time Local Date/Time Air Temperature (°C) Dew Point Temperature (°C) Relative Humidity (%) Wind Direction (°) Wind Speed (mph) Wind Gust Speed (mph) Rainfall (in) Snow Depth (m) Solar Radiation (w/m2) Battery (V)
10/23/2020 06:00:00 2020-10-22 23:00:00 -3.7500 -5.6578 86.6 32 0.00 0.00 465.41 0.309 0.00 13.6
10/23/2020 05:00:00 2020-10-22 22:00:00 -3.7556 -5.1410 90.1 36 0.00 0.00 465.41 0.319 0.00 13.6
10/23/2020 04:00:00 2020-10-22 21:00:00 -3.6889 -4.7270 92.5 36 0.00 0.00 465.41 0.410 0.00 13.6
10/23/2020 03:00:00 2020-10-22 20:00:00 -2.6944 -3.5402 93.9 316 0.00 0.00 465.41 0.324 0.00 13.6
10/23/2020 02:00:00 2020-10-22 19:00:00 -2.1667 -2.4676 97.8 285 0.00 0.00 465.41 0.248 0.00 13.6
10/23/2020 01:00:00 2020-10-22 18:00:00 -1.4389 -1.8532 97.0 272 0.00 0.00 465.41 0.261 16.76 13.6
10/23/2020 00:00:00 2020-10-22 17:00:00 -1.2389 -2.0805 94.0 271 0.00 0.00 465.41 0.276 65.49 13.6
10/22/2020 23:00:00 2020-10-22 16:00:00 -0.7778 -2.7643 86.4 272 0.00 0.00 465.41 0.270 185.20 13.6
10/22/2020 22:00:00 2020-10-22 15:00:00 -0.6444 -2.3546 88.2 262 0.14 4.24 465.41 0.347 327.80 13.6
10/22/2020 21:00:00 2020-10-22 14:00:00 0.0222 -1.7591 87.8 262 0.35 4.24 465.41 0.247 862.00 13.6
10/22/2020 20:00:00 2020-10-22 13:00:00 -1.7667 -4.0497 84.4 256 0.00 0.00 465.41 0.175 723.50 13.6
10/22/2020 19:00:00 2020-10-22 12:00:00 -2.5000 -3.7232 91.3 240 0.00 0.00 465.41 0.078 163.10 13.6
10/22/2020 18:00:00 2020-10-22 11:00:00 -2.4944 -3.5430 92.5 283 0.00 0.00 465.41 0.067 422.60 13.6
10/22/2020 17:00:00 2020-10-22 10:00:00 -2.1500 -4.5365 83.7 346 0.00 0.00 465.41 0.154 184.20 13.6
10/22/2020 16:00:00 2020-10-22 09:00:00 -4.2778 -5.1266 93.8 359 0.00 0.00 465.41 0.213 91.20 13.6
10/22/2020 15:00:00 2020-10-22 08:00:00 -5.2111 -6.7987 88.6 8 0.00 0.00 465.41 0.223 35.64 13.6
10/22/2020 14:00:00 2020-10-22 07:00:00 -5.3444 -6.6682 90.4 6 0.00 0.00 465.41 0.166 0.00 13.6
10/22/2020 13:00:00 2020-10-22 06:00:00 -5.4778 -6.5997 91.8 30 0.00 0.00 465.41 0.124 0.00 13.6
10/22/2020 12:00:00 2020-10-22 05:00:00 -5.2111 -6.4643 90.9 57 0.00 0.00 465.41 0.066 0.00 13.6
10/22/2020 11:00:00 2020-10-22 04:00:00 -5.1444 -6.0994 93.0 57 0.00 0.00 465.41 0.147 0.00 13.6
10/22/2020 10:00:00 2020-10-22 03:00:00 -5.3444 -5.8817 96.0 50 0.00 0.00 465.41 0.187 0.00 13.6
10/22/2020 09:00:00 2020-10-22 02:00:00 -5.4778 -6.0144 96.0 33 0.00 0.00 465.41 0.171 0.00 13.6
10/22/2020 08:00:00 2020-10-22 01:00:00 -5.7444 -6.2526 96.2 35 0.00 0.00 465.41 0.237 0.00 13.6
10/22/2020 07:00:00 2020-10-22 00:00:00 -5.4167 -5.8854 96.5 32 0.00 0.00 465.41 0.151 0.00 13.6
10/22/2020 06:00:00 2020-10-21 23:00:00 -4.7500 -5.2350 96.4 64 0.00 0.00 465.41 0.119 0.00 13.6
10/22/2020 05:00:00 2020-10-21 22:00:00 -4.2222 -4.8476 95.4 79 0.00 0.00 465.41 0.010 0.00 13.6
10/22/2020 04:00:00 2020-10-21 21:00:00 -3.3556 -3.6399 97.9 96 0.00 0.00 465.41 0.047 0.00 13.6
10/22/2020 03:00:00 2020-10-21 20:00:00 -3.4889 -3.6641 98.7 93 0.00 0.00 465.41 0.095 0.00 13.6
10/22/2020 02:00:00 2020-10-21 19:00:00 -3.0278 -3.2309 98.5 99 0.00 0.00 465.41 0.211 0.00 13.6
10/22/2020 01:00:00 2020-10-21 18:00:00 -2.7000 -2.7947 99.3 185 0.00 0.00 465.41 0.051 3.41 13.6
10/22/2020 00:00:00 2020-10-21 17:00:00 -2.3000 -2.4359 99.0 197 0.00 0.00 465.40 0.116 67.60 13.6
10/21/2020 23:00:00 2020-10-21 16:00:00 -2.2333 -2.2740 99.7 240 0.59 5.65 465.40 0.181 167.60 13.6
10/21/2020 22:00:00 2020-10-21 15:00:00 -2.5000 -2.5135 99.9 247 2.68 12.71 465.40 0.121 157.80 13.6
10/21/2020 21:00:00 2020-10-21 14:00:00 -2.8333 -2.8738 99.7 261 13.33 23.30 465.40 0.201 37.36 13.6
10/21/2020 20:00:00 2020-10-21 13:00:00 -2.3667 -2.3802 99.9 264 13.36 21.18 465.40 0.226 230.50 13.6
10/21/2020 19:00:00 2020-10-21 12:00:00 -2.6333 -2.6603 99.8 269 16.45 29.65 465.40 0.176 213.80 13.6
10/21/2020 18:00:00 2020-10-21 11:00:00 -2.4333 -2.4469 99.9 260 16.55 28.24 465.40 0.060 209.00 13.6
10/21/2020 17:00:00 2020-10-21 10:00:00 -2.5000 -2.5135 99.9 266 14.16 23.30 465.40 0.035 113.60 13.6
10/21/2020 16:00:00 2020-10-21 09:00:00 -2.7611 -2.7746 99.9 258 16.69 27.53 465.40 0.180 112.20 13.6
10/21/2020 15:00:00 2020-10-21 08:00:00 -2.7611 -2.7746 99.9 252 17.43 31.06 465.40 0.194 12.92 13.6
10/21/2020 14:00:00 2020-10-21 07:00:00 -2.6944 -2.7079 99.9 253 17.53 27.53 465.40 0.172 0.00 13.6
10/21/2020 13:00:00 2020-10-21 06:00:00 -2.5667 -2.5802 99.9 266 16.36 31.77 465.40 0.226 0.00 13.6
10/21/2020 12:00:00 2020-10-21 05:00:00 -0.9056 -0.9192 99.9 276 14.87 25.42 465.40 0.142 0.00 13.6
10/21/2020 11:00:00 2020-10-21 04:00:00 -0.7722 -0.7997 99.8 261 13.46 25.42 465.40 0.267 0.00 13.6
10/21/2020 10:00:00 2020-10-21 03:00:00 -0.9722 -0.9859 99.9 250 12.46 21.18 465.39 0.305 0.00 13.6
10/21/2020 09:00:00 2020-10-21 02:00:00 -1.0389 -1.0663 99.8 250 9.69 19.06 465.39 0.272 0.00 13.6
10/21/2020 08:00:00 2020-10-21 01:00:00 -0.9722 -0.9996 99.8 238 6.94 14.12 465.39 0.296 0.00 13.6
10/21/2020 07:00:00 2020-10-21 00:00:00 -0.7722 -0.7997 99.8 241 5.24 12.71 465.39 0.266 0.00 13.6
10/21/2020 06:00:00 2020-10-20 23:00:00 -0.5056 -0.5330 99.8 231 4.94 12.71 465.39 0.274 0.00 13.6
10/21/2020 05:00:00 2020-10-20 22:00:00 -0.3722 -0.3860 99.9 253 4.95 12.00 465.39 0.302 0.00 13.6
10/21/2020 04:00:00 2020-10-20 21:00:00 -0.2389 -0.2527 99.9 256 6.94 14.83 465.38 0.276 0.00 13.6
10/21/2020 03:00:00 2020-10-20 20:00:00 -0.1722 -0.1998 99.8 242 9.10 21.89 465.38 0.246 0.00 13.6
10/21/2020 02:00:00 2020-10-20 19:00:00 0.0222 0.0084 99.9 255 9.21 14.83 465.38 0.253 0.00 13.6
10/21/2020 01:00:00 2020-10-20 18:00:00 0.2889 0.2751 99.9 259 8.93 16.24 465.38 0.324 7.40 13.6
10/21/2020 00:00:00 2020-10-20 17:00:00 0.4833 0.4695 99.9 247 5.98 14.12 465.37 0.259 21.73 13.6
10/20/2020 23:00:00 2020-10-20 16:00:00 0.9500 0.9361 99.9 266 4.02 10.59 465.37 0.264 57.43 13.6
10/20/2020 22:00:00 2020-10-20 15:00:00 0.8833 0.8555 99.8 265 2.78 10.59 465.37 0.235 67.56 13.6
10/20/2020 21:00:00 2020-10-20 14:00:00 0.9500 0.9361 99.9 276 2.16 10.59 465.36 0.265 92.30 13.6
10/20/2020 20:00:00 2020-10-20 13:00:00 0.4833 0.4556 99.8 268 0.00 0.71 465.36 0.224 122.90 13.6
10/20/2020 19:00:00 2020-10-20 12:00:00 0.0222 0.0084 99.9 255 1.20 6.35 465.35 0.294 119.10 13.6
10/20/2020 18:00:00 2020-10-20 11:00:00 0.0222 -0.0054 99.8 272 0.72 4.94 465.35 0.290 174.70 13.6
10/20/2020 17:00:00 2020-10-20 10:00:00 -0.1722 -0.1860 99.9 266 1.42 6.35 465.34 0.271 90.40 13.6
10/20/2020 16:00:00 2020-10-20 09:00:00 -0.2389 -0.2527 99.9 262 0.00 0.00 465.34 0.309 72.01 13.6
10/20/2020 15:00:00 2020-10-20 08:00:00 -0.3056 -0.3193 99.9 260 0.01 1.41 465.34 0.239 6.83 13.6
10/20/2020 14:00:00 2020-10-20 07:00:00 -0.2389 -0.2527 99.9 251 0.11 2.12 465.33 0.246 0.00 13.6
10/20/2020 13:00:00 2020-10-20 06:00:00 -0.2389 -0.2527 99.9 273 0.95 4.24 465.32 0.289 0.00 13.6
10/20/2020 12:00:00 2020-10-20 05:00:00 -0.0389 -0.0665 99.8 278 3.41 8.47 465.32 0.289 0.00 13.6
10/20/2020 11:00:00 2020-10-20 04:00:00 -0.0389 -0.0527 99.9 291 2.87 7.06 465.31 0.209 0.00 13.6
10/20/2020 10:00:00 2020-10-20 03:00:00 0.1556 0.1417 99.9 288 2.34 6.35 465.31 0.345 0.00 13.6
10/20/2020 09:00:00 2020-10-20 02:00:00 0.1556 0.1279 99.8 268 5.04 12.00 465.30 0.274 0.00 13.6
10/20/2020 08:00:00 2020-10-20 01:00:00 0.4833 0.4556 99.8 265 6.10 11.30 465.30 0.247 0.00 13.6
10/20/2020 07:00:00 2020-10-20 00:00:00 0.4833 0.4695 99.9 238 8.52 17.65 465.29 0.302 0.00 13.6
10/20/2020 06:00:00 2020-10-19 23:00:00 0.5500 0.5223 99.8 256 8.28 16.94 465.28 0.340 0.00 13.6
10/20/2020 05:00:00 2020-10-19 22:00:00 0.5556 0.5417 99.9 271 11.58 22.59 465.27 0.317 0.00 13.6
10/20/2020 04:00:00 2020-10-19 21:00:00 0.4222 -0.5336 93.3 264 14.60 23.30 465.27 0.357 0.00 13.6
10/20/2020 03:00:00 2020-10-19 20:00:00 0.8833 0.3032 95.9 250 18.84 30.36 465.26 0.294 0.00 13.6
10/20/2020 02:00:00 2020-10-19 19:00:00 1.2167 0.7358 96.6 255 16.81 28.95 465.25 0.225 0.00 13.6
10/20/2020 01:00:00 2020-10-19 18:00:00 1.3500 0.3720 93.2 255 14.87 26.12 465.24 0.275 9.67 13.6
10/20/2020 00:00:00 2020-10-19 17:00:00 2.2778 0.6358 88.9 254 15.77 26.12 465.23 0.305 90.00 13.6
10/19/2020 23:00:00 2020-10-19 16:00:00 2.7333 0.8329 87.3 254 17.40 27.53 465.22 0.283 93.60 13.6
10/19/2020 22:00:00 2020-10-19 15:00:00 3.7333 1.0285 82.5 264 16.95 28.24 465.22 0.253 348.50 13.6
10/19/2020 21:00:00 2020-10-19 14:00:00 3.7944 2.3672 90.4 248 17.85 31.77 465.20 0.279 279.70 13.6
10/19/2020 20:00:00 2020-10-19 13:00:00 5.6667 2.7820 81.7 256 18.82 28.24 465.19 0.303 774.00 13.6
10/19/2020 19:00:00 2020-10-19 12:00:00 4.6667 2.6066 86.5 257 19.20 31.77 465.18 0.253 667.50 13.6
10/19/2020 18:00:00 2020-10-19 11:00:00 4.2000 3.2446 93.5 249 19.65 32.48 465.17 0.249 533.20 13.6
10/19/2020 17:00:00 2020-10-19 10:00:00 3.5444 2.3359 91.8 257 17.07 33.18 465.16 0.265 453.70 13.6
10/19/2020 16:00:00 2020-10-19 09:00:00 2.4833 2.4552 99.8 260 14.71 25.42 465.15 0.268 175.60 13.6
10/19/2020 15:00:00 2020-10-19 08:00:00 2.0833 2.0553 99.8 262 15.85 33.18 465.13 0.247 11.26 13.6
10/19/2020 14:00:00 2020-10-19 07:00:00 2.1500 2.1219 99.8 266 16.99 33.89 465.12 0.264 0.00 13.6
10/19/2020 13:00:00 2020-10-19 06:00:00 1.6833 1.6553 99.8 265 19.31 28.24 465.11 0.255 0.00 13.6
10/19/2020 12:00:00 2020-10-19 05:00:00 2.0833 2.0693 99.9 271 18.53 27.53 465.09 0.264 0.00 13.6
10/19/2020 11:00:00 2020-10-19 04:00:00 2.0167 1.9886 99.8 277 20.31 32.48 465.08 0.252 0.00 13.6
10/19/2020 10:00:00 2020-10-19 03:00:00 2.6167 2.5885 99.8 284 18.15 28.95 465.06 0.239 0.00 13.6
10/19/2020 09:00:00 2020-10-19 02:00:00 2.6833 2.6551 99.8 277 16.69 27.53 465.06 0.252 0.00 13.6
10/19/2020 08:00:00 2020-10-19 01:00:00 2.5500 2.1796 97.4 273 16.38 28.24 465.06 0.277 0.00 13.6
10/19/2020 07:00:00 2020-10-19 00:00:00 2.6167 1.8075 94.4 257 16.08 27.53 465.06 0.234 0.00 13.6
10/19/2020 06:00:00 2020-10-18 23:00:00 2.6167 2.1012 96.4 259 19.66 30.36 465.06 0.230 0.00 13.6
10/19/2020 05:00:00 2020-10-18 22:00:00 3.0167 2.8319 98.7 252 21.05 37.42 465.06 0.287 0.00 13.6
10/19/2020 04:00:00 2020-10-18 21:00:00 3.1444 3.0166 99.1 252 20.98 32.48 465.06 0.218 0.00 13.6
10/19/2020 03:00:00 2020-10-18 20:00:00 3.7389 3.7247 99.9 257 19.98 32.48 465.06 0.285 0.00 13.6
10/19/2020 02:00:00 2020-10-18 19:00:00 4.3333 4.3047 99.8 272 20.61 33.18 465.06 0.196 0.00 13.6
10/19/2020 01:00:00 2020-10-18 18:00:00 4.6000 4.4995 99.3 276 21.48 35.30 465.06 0.246 18.37 13.6
10/19/2020 00:00:00 2020-10-18 17:00:00 5.3944 5.3656 99.8 271 22.22 36.71 465.06 0.218 78.71 13.6
10/18/2020 23:00:00 2020-10-18 16:00:00 5.8611 5.8322 99.8 272 25.19 40.24 465.06 0.237 80.20 13.6
10/18/2020 22:00:00 2020-10-18 15:00:00 6.0500 6.0210 99.8 281 27.00 40.24 465.06 0.242 154.90 13.6
10/18/2020 21:00:00 2020-10-18 14:00:00 6.9167 6.8875 99.8 278 22.03 31.06 465.06 0.239 150.70 13.6
10/18/2020 20:00:00 2020-10-18 13:00:00 6.8556 6.8410 99.9 276 20.04 29.65 465.06 0.233 262.00 13.6
10/18/2020 19:00:00 2020-10-18 12:00:00 6.3944 6.3654 99.8 282 20.90 35.30 465.06 0.119 219.50 13.6
10/18/2020 18:00:00 2020-10-18 11:00:00 5.9333 5.9189 99.9 275 19.19 27.53 465.06 0.226 165.90 13.6
10/18/2020 17:00:00 2020-10-18 10:00:00 5.3333 5.3189 99.9 277 18.20 25.42 465.05 0.160 89.60 13.6
10/18/2020 16:00:00 2020-10-18 09:00:00 5.0000 4.9856 99.9 274 16.93 24.00 465.05 0.090 36.17 13.6
10/18/2020 15:00:00 2020-10-18 08:00:00 4.6667 4.6523 99.9 275 17.72 25.42 465.05 0.126 19.54 13.6
10/18/2020 14:00:00 2020-10-18 07:00:00 3.8722 3.8580 99.9 270 15.14 27.53 465.05 0.202 0.00 13.6
10/18/2020 13:00:00 2020-10-18 06:00:00 4.0722 4.0580 99.9 273 15.66 24.71 465.05 0.195 0.00 13.6
10/18/2020 12:00:00 2020-10-18 05:00:00 2.8833 2.8551 99.8 280 8.69 16.24 465.05 0.260 0.00 13.6
10/18/2020 11:00:00 2020-10-18 04:00:00 2.0167 1.9886 99.8 283 4.85 12.71 465.05 0.157 0.00 13.6
10/18/2020 10:00:00 2020-10-18 03:00:00 0.3556 0.3417 99.9 278 5.15 12.00 465.05 0.227 0.00 13.6
10/18/2020 09:00:00 2020-10-18 02:00:00 0.6833 0.6695 99.9 274 9.47 16.24 465.05 0.257 0.00 13.6
10/18/2020 08:00:00 2020-10-18 01:00:00 0.5500 0.5223 99.8 280 11.05 16.94 465.05 0.313 0.00 13.6
10/18/2020 07:00:00 2020-10-18 00:00:00 0.4222 0.3945 99.8 282 9.77 13.41 465.05 0.320 0.00 13.6
10/18/2020 06:00:00 2020-10-17 23:00:00 0.4833 0.4556 99.8 288 7.30 12.71 465.05 0.317 0.00 13.6
10/18/2020 05:00:00 2020-10-17 22:00:00 0.7500 0.7361 99.9 284 5.15 10.59 465.04 0.327 0.00 13.6
10/18/2020 04:00:00 2020-10-17 21:00:00 0.5500 0.5223 99.8 276 4.20 8.47 465.04 0.313 0.00 13.6
10/18/2020 03:00:00 2020-10-17 20:00:00 0.6833 0.6556 99.8 291 3.20 8.47 465.04 0.324 0.00 13.6
10/18/2020 02:00:00 2020-10-17 19:00:00 0.7500 0.7222 99.8 296 1.09 9.18 465.04 0.304 0.00 13.6
10/18/2020 01:00:00 2020-10-17 18:00:00 1.3500 0.9547 97.2 313 0.16 4.94 465.04 0.268 7.68 13.6
10/18/2020 00:00:00 2020-10-17 17:00:00 2.3389 1.4127 93.6 293 0.32 5.65 465.04 0.264 86.60 13.6
10/17/2020 23:00:00 2020-10-17 16:00:00 3.8667 2.3293 89.7 48 0.27 4.94 465.04 0.229 406.60 13.6
10/17/2020 22:00:00 2020-10-17 15:00:00 2.6000 2.5859 99.9 275 1.04 8.47 465.04 0.210 287.10 13.6
10/17/2020 21:00:00 2020-10-17 14:00:00 2.8000 2.7293 99.5 274 5.82 13.41 465.04 0.263 405.40 13.6
10/17/2020 20:00:00 2020-10-17 13:00:00 3.4778 3.4494 99.8 267 6.76 12.71 465.04 0.238 573.50 13.6
10/17/2020 19:00:00 2020-10-17 12:00:00 2.2167 2.2026 99.9 268 6.25 14.12 465.04 0.250 177.50 13.6
10/17/2020 18:00:00 2020-10-17 11:00:00 1.8833 1.8693 99.9 274 4.96 10.59 465.04 0.244 143.00 13.6
10/17/2020 17:00:00 2020-10-17 10:00:00 1.5500 1.5360 99.9 272 5.99 13.41 465.04 0.270 135.70 13.6
10/17/2020 16:00:00 2020-10-17 09:00:00 0.9500 0.9361 99.9 271 3.00 12.71 465.04 0.268 49.58 13.6
10/17/2020 15:00:00 2020-10-17 08:00:00 0.8833 0.8555 99.8 272 6.91 16.94 465.04 0.265 6.91 13.6
10/17/2020 14:00:00 2020-10-17 07:00:00 1.0833 1.0555 99.8 270 12.58 19.77 465.04 0.267 0.00 13.6
10/17/2020 13:00:00 2020-10-17 06:00:00 1.4167 1.4027 99.9 271 12.92 17.65 465.04 0.210 0.00 13.6
10/17/2020 12:00:00 2020-10-17 05:00:00 1.2167 1.1888 99.8 274 12.56 23.30 465.04 0.210 0.00 13.6
10/17/2020 11:00:00 2020-10-17 04:00:00 2.2833 2.2693 99.9 277 13.69 20.47 465.04 0.217 0.00 13.6
10/17/2020 10:00:00 2020-10-17 03:00:00 2.7444 2.7303 99.9 270 14.41 22.59 465.03 0.241 0.00 13.6
10/17/2020 09:00:00 2020-10-17 02:00:00 3.0833 3.0692 99.9 265 14.28 24.00 465.03 0.200 0.00 13.6
10/17/2020 08:00:00 2020-10-17 01:00:00 3.2111 3.1828 99.8 260 17.71 24.71 465.03 0.208 0.00 13.6
10/17/2020 07:00:00 2020-10-17 00:00:00 4.3333 4.3190 99.9 267 18.01 28.24 465.03 0.189 0.00 13.6
10/17/2020 06:00:00 2020-10-16 23:00:00 5.3333 5.3045 99.8 278 25.14 42.36 465.03 0.203 0.00 13.6
10/17/2020 05:00:00 2020-10-16 22:00:00 6.3889 6.3598 99.8 283 22.93 33.18 465.03 -0.036 0.00 13.6
10/17/2020 04:00:00 2020-10-16 21:00:00 6.6556 6.6264 99.8 279 23.03 36.01 465.03 0.157 0.00 13.6
10/17/2020 03:00:00 2020-10-16 20:00:00 6.5889 6.5743 99.9 278 21.22 34.59 465.03 0.134 0.00 13.6
10/17/2020 02:00:00 2020-10-16 19:00:00 6.5944 6.5653 99.8 274 20.40 31.77 465.03 0.218 0.00 13.6
10/17/2020 01:00:00 2020-10-16 18:00:00 6.2611 6.2321 99.8 272 20.02 28.95 465.03 0.183 3.75 13.6
10/17/2020 00:00:00 2020-10-16 17:00:00 6.1944 6.1654 99.8 271 19.79 33.18 465.03 0.200 24.26 13.6
10/16/2020 23:00:00 2020-10-16 16:00:00 5.9889 5.9599 99.8 274 25.66 42.36 465.03 0.234 44.05 13.6
10/16/2020 22:00:00 2020-10-16 15:00:00 6.2556 6.2265 99.8 271 31.48 52.24 465.03 0.247 179.90 13.6
10/16/2020 21:00:00 2020-10-16 14:00:00 6.4556 6.4410 99.9 268 32.80 48.71 465.03 -0.045 141.70 13.6
10/16/2020 20:00:00 2020-10-16 13:00:00 6.7889 6.7743 99.9 270 31.07 50.13 465.03 0.054 237.20 13.6
10/16/2020 19:00:00 2020-10-16 12:00:00 6.5222 6.4931 99.8 266 23.15 43.07 465.03 -0.192 82.20 13.6
10/16/2020 18:00:00 2020-10-16 11:00:00 6.3944 6.3799 99.9 267 12.02 28.24 465.03 -0.286 42.11 13.6
10/16/2020 17:00:00 2020-10-16 10:00:00 6.0000 5.9855 99.9 275 10.59 28.24 465.03 0.061 38.16 13.6
10/16/2020 16:00:00 2020-10-16 09:00:00 5.4000 5.3712 99.8 279 4.71 20.47 465.02 0.089 25.74 13.6
10/16/2020 15:00:00 2020-10-16 08:00:00 3.5444 3.5160 99.8 289 2.53 12.71 465.02 0.128 6.91 13.6
10/16/2020 14:00:00 2020-10-16 07:00:00 2.8167 2.7884 99.8 289 1.87 11.30 465.02 0.162 0.00 13.6
10/16/2020 13:00:00 2020-10-16 06:00:00 2.7500 2.7359 99.9 290 0.61 7.06 465.02 0.234 0.00 13.6
10/16/2020 12:00:00 2020-10-16 05:00:00 1.8833 1.8553 99.8 287 0.17 3.53 465.02 0.204 0.00 13.6
10/16/2020 11:00:00 2020-10-16 04:00:00 2.2833 2.2552 99.8 291 0.02 1.41 465.02 0.112 0.00 13.6
10/16/2020 10:00:00 2020-10-16 03:00:00 2.6833 2.5275 98.9 294 0.08 4.94 465.02 0.239 0.00 13.6
10/16/2020 09:00:00 2020-10-16 02:00:00 2.8167 1.4623 90.8 304 0.11 4.94 465.02 0.237 0.00 13.6
10/16/2020 08:00:00 2020-10-16 01:00:00 2.6167 0.9702 88.9 312 0.09 3.53 465.02 0.214 0.00 13.6
10/16/2020 07:00:00 2020-10-16 00:00:00 2.0833 0.5680 89.7 330 0.00 0.71 465.02 0.220 0.00 13.6